Time;durP1;ratioP1;P1;durP2;ratioP2;P2;SDS_P1;SDS_P2;PMS_P1;PMS_P2;Temp;Humidity;BMP_temperature;BMP_pressure;BME280_temperature;BME280_humidity;BME280_pressure;Samples;Min_cycle;Max_cycle;Signal;HPM_P1;HPM_P2
2024/03/11 00:04:47;;;;;;;6.53;3.65;;;;;;;;;;10131580;28;20053;-74
2024/03/11 00:09:48;;;;;;;5.40;3.10;;;;;;;;;;10128011;28;20052;-74
2024/03/11 00:14:51;;;;;;;6.05;3.40;;;;;;;;;;10129731;28;20048;-74
2024/03/11 00:19:45;;;;;;;3.45;2.60;;;;;;;;;;10132970;28;20036;-73
2024/03/11 00:24:39;;;;;;;6.22;3.00;;;;;;;;;;10126917;28;20555;-74
2024/03/11 00:29:32;;;;;;;3.38;3.08;;;;;;;;;;10130209;28;20036;-74
2024/03/11 00:34:27;;;;;;;4.65;3.08;;;;;;;;;;10127744;28;20360;-74
2024/03/11 00:39:22;;;;;;;3.70;2.92;;;;;;;;;;10128921;28;20051;-74
2024/03/11 00:44:16;;;;;;;6.55;3.00;;;;;;;;;;10126819;28;20051;-74
2024/03/11 00:49:10;;;;;;;10.25;3.65;;;;;;;;;;10127737;28;20052;-75
2024/03/11 00:54:06;;;;;;;6.03;2.60;;;;;;;;;;10127846;28;20071;-74
2024/03/11 00:59:00;;;;;;;3.60;2.40;;;;;;;;;;10127711;28;20397;-75
2024/03/11 01:03:55;;;;;;;4.10;2.55;;;;;;;;;;10126134;28;21216;-73
2024/03/11 01:08:49;;;;;;;4.65;2.20;;;;;;;;;;10124548;28;20052;-74
2024/03/11 01:13:45;;;;;;;8.95;2.85;;;;;;;;;;10121327;28;20095;-73
2024/03/11 01:18:39;;;;;;;7.10;3.35;;;;;;;;;;10119954;28;20116;-74
2024/03/11 01:23:33;;;;;;;7.40;3.10;;;;;;;;;;10121668;28;20063;-73
2024/03/11 01:28:28;;;;;;;5.10;2.58;;;;;;;;;;10115942;28;20146;-73
2024/03/11 01:33:21;;;;;;;1.85;1.67;;;;;;;;;;10125412;28;20415;-75
2024/03/11 01:38:18;;;;;;;2.85;2.22;;;;;;;;;;10120538;28;20056;-74
2024/03/11 01:43:14;;;;;;;11.23;3.47;;;;;;;;;;10118360;28;20062;-73
2024/03/11 01:48:10;;;;;;;4.05;2.05;;;;;;;;;;10121411;28;20053;-73
2024/03/11 01:53:05;;;;;;;5.10;2.85;;;;;;;;;;10122215;28;20041;-74
2024/03/11 01:58:03;;;;;;;4.90;2.25;;;;;;;;;;10121350;28;20057;-73
2024/03/11 02:02:57;;;;;;;2.25;2.05;;;;;;;;;;10117355;28;20047;-73
2024/03/11 02:08:11;;;;;;;5.70;2.05;;;;;;;;;;10116968;28;20045;-73
2024/03/11 02:13:05;;;;;;;5.22;2.75;;;;;;;;;;10113749;28;20568;-73
2024/03/11 02:18:00;;;;;;;6.75;3.00;;;;;;;;;;10121185;28;20088;-74
2024/03/11 02:22:55;;;;;;;2.63;2.40;;;;;;;;;;10117381;28;20082;-74
2024/03/11 02:27:50;;;;;;;3.67;2.72;;;;;;;;;;10118456;28;20048;-75
2024/03/11 02:32:45;;;;;;;3.90;2.42;;;;;;;;;;10121425;28;20091;-72
2024/03/11 02:37:39;;;;;;;4.15;1.73;;;;;;;;;;10123393;28;20137;-73
2024/03/11 02:42:34;;;;;;;4.82;2.25;;;;;;;;;;10121277;28;20057;-73
2024/03/11 02:47:28;;;;;;;2.78;2.20;;;;;;;;;;10122375;28;20135;-74
2024/03/11 02:52:22;;;;;;;8.55;4.00;;;;;;;;;;10126043;28;20062;-73
2024/03/11 02:57:17;;;;;;;3.28;2.40;;;;;;;;;;10122520;28;20127;-73
2024/03/11 03:02:12;;;;;;;2.25;1.50;;;;;;;;;;10120237;28;20060;-74
2024/03/11 03:07:25;;;;;;;6.68;2.92;;;;;;;;;;10122386;28;20048;-73
2024/03/11 03:12:19;;;;;;;2.67;2.20;;;;;;;;;;10117659;28;20088;-74
2024/03/11 03:17:14;;;;;;;6.35;2.63;;;;;;;;;;10120606;28;20135;-75
2024/03/11 03:22:08;;;;;;;1.63;1.55;;;;;;;;;;10119776;28;20088;-73
2024/03/11 03:27:02;;;;;;;3.90;2.15;;;;;;;;;;10126842;28;20049;-73
2024/03/11 03:31:57;;;;;;;3.38;1.90;;;;;;;;;;10128165;28;20040;-73
2024/03/11 03:36:51;;;;;;;3.97;2.13;;;;;;;;;;10127439;28;20059;-74
2024/03/11 03:41:45;;;;;;;2.28;1.80;;;;;;;;;;10127858;28;20139;-74
2024/03/11 03:46:40;;;;;;;3.22;2.00;;;;;;;;;;10132888;28;20102;-73
2024/03/11 03:51:34;;;;;;;5.80;2.42;;;;;;;;;;10124119;28;20053;-73
2024/03/11 03:56:30;;;;;;;1.95;1.70;;;;;;;;;;10127858;28;20074;-73
2024/03/11 04:01:24;;;;;;;2.47;2.17;;;;;;;;;;10127056;28;20052;-72
2024/03/11 04:06:19;;;;;;;4.63;2.60;;;;;;;;;;10126190;28;20052;-75
2024/03/11 04:11:13;;;;;;;7.57;2.67;;;;;;;;;;10123948;28;20037;-72
2024/03/11 04:16:07;;;;;;;7.07;2.70;;;;;;;;;;10128705;28;20052;-73
2024/03/11 04:21:05;;;;;;;4.43;2.88;;;;;;;;;;10120605;28;20090;-73
2024/03/11 04:26:03;;;;;;;5.15;3.70;;;;;;;;;;10124679;28;20057;-73
2024/03/11 04:30:58;;;;;;;4.87;2.67;;;;;;;;;;10121119;28;20106;-75
2024/03/11 04:35:53;;;;;;;4.60;3.30;;;;;;;;;;10124919;28;20056;-76
2024/03/11 04:40:48;;;;;;;7.57;3.33;;;;;;;;;;10120212;28;20044;-74
2024/03/11 04:45:42;;;;;;;6.78;4.15;;;;;;;;;;10125725;28;20086;-74
2024/03/11 04:50:38;;;;;;;5.32;3.20;;;;;;;;;;10121798;28;20060;-74
2024/03/11 04:55:36;;;;;;;6.32;4.47;;;;;;;;;;10121191;28;20118;-74
2024/03/11 05:00:31;;;;;;;10.02;5.75;;;;;;;;;;10117476;28;20416;-74
2024/03/11 05:05:26;;;;;;;7.78;5.25;;;;;;;;;;10122779;28;20045;-74
2024/03/11 05:10:21;;;;;;;7.50;4.60;;;;;;;;;;10118956;28;20591;-73
2024/03/11 05:15:17;;;;;;;6.72;4.93;;;;;;;;;;10105972;28;20044;-75
2024/03/11 05:20:11;;;;;;;7.70;6.82;;;;;;;;;;10117300;28;20480;-74
2024/03/11 05:25:07;;;;;;;6.25;5.55;;;;;;;;;;10119842;28;20052;-74
2024/03/11 05:30:01;;;;;;;10.30;8.02;;;;;;;;;;10123575;28;20060;-74
2024/03/11 05:34:55;;;;;;;9.25;7.30;;;;;;;;;;10127271;28;20492;-73
2024/03/11 05:39:49;;;;;;;15.40;8.93;;;;;;;;;;10124510;28;20099;-74
2024/03/11 05:44:43;;;;;;;18.58;14.57;;;;;;;;;;10122893;28;20044;-74
2024/03/11 05:49:37;;;;;;;23.08;12.82;;;;;;;;;;10125258;28;20521;-74
2024/03/11 05:54:32;;;;;;;14.60;10.93;;;;;;;;;;10123370;28;20493;-75
2024/03/11 05:59:27;;;;;;;12.48;10.23;;;;;;;;;;10123402;28;20094;-73
2024/03/11 06:04:22;;;;;;;12.40;9.35;;;;;;;;;;10125799;28;20082;-75
2024/03/11 06:09:16;;;;;;;32.33;26.95;;;;;;;;;;10125157;28;20049;-74
2024/03/11 06:14:12;;;;;;;14.18;12.38;;;;;;;;;;10127835;28;20052;-74
2024/03/11 06:19:07;;;;;;;10.80;8.65;;;;;;;;;;10123951;28;20455;-74
2024/03/11 06:24:05;;;;;;;18.55;13.63;;;;;;;;;;10127185;28;20114;-76
2024/03/11 06:29:00;;;;;;;11.45;9.48;;;;;;;;;;10123058;28;20078;-74
2024/03/11 06:33:55;;;;;;;53.72;39.50;;;;;;;;;;10123794;28;20132;-75
2024/03/11 06:38:53;;;;;;;18.17;15.63;;;;;;;;;;10119373;28;20052;-75
2024/03/11 06:43:47;;;;;;;14.23;9.73;;;;;;;;;;10120474;28;20508;-75
2024/03/11 06:48:43;;;;;;;12.45;9.65;;;;;;;;;;10124513;28;20084;-74
2024/03/11 06:53:38;;;;;;;14.00;8.60;;;;;;;;;;10121434;28;20054;-74
2024/03/11 06:58:31;;;;;;;14.45;11.45;;;;;;;;;;10125958;28;20053;-76
2024/03/11 07:03:29;;;;;;;15.32;11.88;;;;;;;;;;10129166;28;20492;-74
2024/03/11 07:08:24;;;;;;;16.55;12.85;;;;;;;;;;10133113;28;20079;-75
2024/03/11 07:13:18;;;;;;;14.05;12.07;;;;;;;;;;10131697;28;20045;-74
2024/03/11 07:18:16;;;;;;;11.77;10.35;;;;;;;;;;10129102;28;20057;-74
2024/03/11 07:23:12;;;;;;;13.50;11.13;;;;;;;;;;10131169;28;20044;-73
2024/03/11 07:28:08;;;;;;;21.85;18.23;;;;;;;;;;10129360;28;20664;-75
2024/03/11 07:33:14;;;;;;;16.85;15.05;;;;;;;;;;10128715;28;20044;-75
2024/03/11 07:38:09;;;;;;;21.92;15.48;;;;;;;;;;10124021;28;20037;-74
2024/03/11 07:43:08;;;;;;;18.85;15.00;;;;;;;;;;10123790;28;20053;-75
2024/03/11 07:48:02;;;;;;;20.40;13.50;;;;;;;;;;10129802;28;20077;-75
2024/03/11 07:52:56;;;;;;;16.42;11.85;;;;;;;;;;10126773;28;20040;-75
2024/03/11 07:57:52;;;;;;;15.82;7.60;;;;;;;;;;10122946;28;20052;-74
2024/03/11 08:02:51;;;;;;;7.45;4.38;;;;;;;;;;10125684;28;20056;-75
2024/03/11 08:07:45;;;;;;;10.43;4.85;;;;;;;;;;10126361;28;20044;-74
2024/03/11 08:12:41;;;;;;;8.70;4.57;;;;;;;;;;10126961;28;20045;-75
2024/03/11 08:17:36;;;;;;;5.45;3.63;;;;;;;;;;10129074;28;20124;-76
2024/03/11 08:22:31;;;;;;;3.33;2.53;;;;;;;;;;10129942;28;20478;-75
2024/03/11 08:27:25;;;;;;;7.95;2.97;;;;;;;;;;10125463;28;20416;-76
2024/03/11 08:32:21;;;;;;;3.92;2.53;;;;;;;;;;10129756;28;20045;-74
2024/03/11 08:37:16;;;;;;;3.15;1.90;;;;;;;;;;10125270;28;20037;-76
2024/03/11 08:42:11;;;;;;;10.55;3.38;;;;;;;;;;10127916;28;20103;-73
2024/03/11 08:47:11;;;;;;;4.97;2.75;;;;;;;;;;10124173;28;20187;-76
2024/03/11 08:52:07;;;;;;;4.68;3.42;;;;;;;;;;10123436;28;20123;-75
2024/03/11 08:57:01;;;;;;;7.88;2.50;;;;;;;;;;10122701;28;20072;-76
2024/03/11 09:01:57;;;;;;;8.82;2.58;;;;;;;;;;10125586;28;20106;-75
2024/03/11 09:06:51;;;;;;;5.13;2.30;;;;;;;;;;10122124;28;20053;-75
2024/03/11 09:11:47;;;;;;;4.75;2.50;;;;;;;;;;10120901;28;20431;-76
2024/03/11 09:16:42;;;;;;;7.05;2.22;;;;;;;;;;10125362;28;20068;-76
2024/03/11 09:21:36;;;;;;;5.65;2.60;;;;;;;;;;10123817;28;20057;-75
2024/03/11 09:26:30;;;;;;;4.97;2.58;;;;;;;;;;10125489;28;20044;-76
2024/03/11 09:31:26;;;;;;;5.53;2.67;;;;;;;;;;10125241;28;20091;-75
2024/03/11 09:36:22;;;;;;;4.30;2.75;;;;;;;;;;10123011;28;20045;-74
2024/03/11 09:41:16;;;;;;;4.97;2.78;;;;;;;;;;10124062;28;20045;-75
2024/03/11 09:46:12;;;;;;;6.00;3.25;;;;;;;;;;10121132;28;20122;-74
2024/03/11 09:51:10;;;;;;;13.85;4.10;;;;;;;;;;10122202;28;21439;-74
2024/03/11 09:56:08;;;;;;;5.43;3.80;;;;;;;;;;10124143;28;20072;-74
2024/03/11 10:01:07;;;;;;;6.28;4.30;;;;;;;;;;10118889;28;20048;-75
2024/03/11 10:06:07;;;;;;;6.10;4.70;;;;;;;;;;10120906;28;20069;-74
2024/03/11 10:11:21;;;;;;;9.48;6.28;;;;;;;;;;10122988;28;20350;-75
2024/03/11 10:16:17;;;;;;;12.15;5.72;;;;;;;;;;10120405;28;20048;-74
2024/03/11 10:21:16;;;;;;;6.10;5.47;;;;;;;;;;10118560;28;21878;-75
2024/03/11 10:26:25;;;;;;;8.48;5.07;;;;;;;;;;10125980;28;20044;-74
2024/03/11 10:31:27;;;;;;;8.02;6.00;;;;;;;;;;10112165;28;20076;-74
2024/03/11 10:36:24;;;;;;;8.10;7.18;;;;;;;;;;10123721;28;20052;-75
2024/03/11 10:41:22;;;;;;;9.57;7.05;;;;;;;;;;10128974;28;20073;-75
2024/03/11 10:46:18;;;;;;;8.27;7.07;;;;;;;;;;10130981;28;20782;-73
2024/03/11 10:51:12;;;;;;;8.95;6.93;;;;;;;;;;10132534;28;20052;-75
2024/03/11 10:56:19;;;;;;;7.82;7.03;;;;;;;;;;10129129;28;20048;-74
2024/03/11 11:01:16;;;;;;;10.02;7.22;;;;;;;;;;10133780;28;20060;-75
2024/03/11 11:06:14;;;;;;;8.88;7.25;;;;;;;;;;10129932;28;20041;-74
2024/03/11 11:11:17;;;;;;;9.18;6.32;;;;;;;;;;10132554;28;20053;-74
2024/03/11 11:16:13;;;;;;;9.07;8.10;;;;;;;;;;10129003;28;20412;-76
2024/03/11 11:21:29;;;;;;;9.73;8.85;;;;;;;;;;10114633;28;20511;-74
2024/03/11 11:27:01;;;;;;;10.38;8.63;;;;;;;;;;10117294;28;20044;-74
2024/03/11 11:32:04;;;;;;;9.80;8.80;;;;;;;;;;10127513;28;20060;-74
2024/03/11 11:36:58;;;;;;;10.27;8.57;;;;;;;;;;10128684;28;20080;-77
2024/03/11 11:41:54;;;;;;;12.23;8.70;;;;;;;;;;10131858;28;20056;-73
2024/03/11 11:46:50;;;;;;;8.93;8.13;;;;;;;;;;10129297;28;20053;-75
2024/03/11 11:51:46;;;;;;;11.17;7.57;;;;;;;;;;10128014;28;20052;-74
2024/03/11 11:56:41;;;;;;;10.55;8.10;;;;;;;;;;10125109;28;20484;-75
2024/03/11 12:01:51;;;;;;;9.82;8.60;;;;;;;;;;10127185;28;20127;-75
2024/03/11 12:06:50;;;;;;;10.38;9.27;;;;;;;;;;10130018;28;20051;-76
2024/03/11 12:11:49;;;;;;;9.38;8.45;;;;;;;;;;10126958;28;20554;-76
2024/03/11 12:16:42;;;;;;;10.38;9.35;;;;;;;;;;10127831;28;20492;-73
2024/03/11 12:21:59;;;;;;;12.10;10.20;;;;;;;;;;10126285;28;20052;-74
2024/03/11 12:26:56;;;;;;;12.00;9.25;;;;;;;;;;10124910;28;20362;-73
2024/03/11 12:31:56;;;;;;;9.77;8.60;;;;;;;;;;10124820;28;20057;-74
2024/03/11 12:36:49;;;;;;;10.32;8.50;;;;;;;;;;10123409;28;20546;-73
2024/03/11 12:41:43;;;;;;;12.45;9.27;;;;;;;;;;10126082;28;20074;-74
2024/03/11 12:46:50;;;;;;;9.73;7.93;;;;;;;;;;10128378;28;20467;-73
2024/03/11 12:51:43;;;;;;;11.05;8.32;;;;;;;;;;10124557;28;20052;-74
2024/03/11 12:56:39;;;;;;;14.90;9.18;;;;;;;;;;10125450;28;20143;-73
2024/03/11 13:01:33;;;;;;;8.90;8.00;;;;;;;;;;10121601;28;20855;-74
2024/03/11 13:06:26;;;;;;;10.00;7.70;;;;;;;;;;10122225;28;20051;-73
2024/03/11 13:11:21;;;;;;;11.88;8.70;;;;;;;;;;10123892;28;20122;-73
2024/03/11 13:16:18;;;;;;;11.35;8.35;;;;;;;;;;10122970;28;20067;-72
2024/03/11 13:21:14;;;;;;;9.93;7.90;;;;;;;;;;10123839;28;20064;-75
2024/03/11 13:26:11;;;;;;;12.18;9.07;;;;;;;;;;10124750;28;20086;-73
2024/03/11 13:31:08;;;;;;;11.52;8.18;;;;;;;;;;10121220;28;20076;-73
2024/03/11 13:36:06;;;;;;;12.23;8.20;;;;;;;;;;10123098;28;20052;-74
2024/03/11 13:41:00;;;;;;;9.27;8.27;;;;;;;;;;10122872;28;20056;-72
2024/03/11 13:45:55;;;;;;;11.20;8.73;;;;;;;;;;10121298;28;20053;-73
2024/03/11 13:50:49;;;;;;;15.90;7.70;;;;;;;;;;10122966;28;20056;-73
2024/03/11 13:55:44;;;;;;;13.75;8.45;;;;;;;;;;10125275;28;20076;-74
2024/03/11 14:00:39;;;;;;;9.82;6.65;;;;;;;;;;10124527;28;20131;-74
2024/03/11 14:05:35;;;;;;;10.35;7.85;;;;;;;;;;10123481;28;20095;-75
2024/03/11 14:10:30;;;;;;;12.40;8.55;;;;;;;;;;10120743;28;20102;-75
2024/03/11 14:15:25;;;;;;;13.40;9.35;;;;;;;;;;10123018;28;20056;-76
2024/03/11 14:20:24;;;;;;;10.32;8.18;;;;;;;;;;10123084;28;20060;-76
2024/03/11 14:25:20;;;;;;;14.07;11.07;;;;;;;;;;10124256;28;20484;-73
2024/03/11 14:30:16;;;;;;;10.70;8.77;;;;;;;;;;10126425;28;20144;-73
2024/03/11 14:35:13;;;;;;;12.05;9.52;;;;;;;;;;10131279;28;20052;-75
2024/03/11 14:40:41;;;;;;;11.02;10.02;;;;;;;;;;10121814;28;20048;-73
2024/03/11 14:45:38;;;;;;;11.55;9.48;;;;;;;;;;10123423;28;20053;-75
2024/03/11 14:50:36;;;;;;;12.43;9.68;;;;;;;;;;10118095;28;20053;-74
2024/03/11 14:55:36;;;;;;;9.77;8.68;;;;;;;;;;10118252;28;20051;-74
2024/03/11 15:00:35;;;;;;;10.95;9.18;;;;;;;;;;10122776;28;20584;-74
2024/03/11 15:05:31;;;;;;;9.93;7.65;;;;;;;;;;10119964;28;20044;-73
2024/03/11 15:10:44;;;;;;;15.02;9.40;;;;;;;;;;10116874;28;20119;-74
2024/03/11 15:15:46;;;;;;;8.10;7.30;;;;;;;;;;10117520;28;20488;-74
2024/03/11 15:20:47;;;;;;;12.13;7.93;;;;;;;;;;10119921;28;20423;-73
2024/03/11 15:25:43;;;;;;;10.32;8.50;;;;;;;;;;10129802;28;20408;-74
2024/03/11 15:30:37;;;;;;;11.80;8.95;;;;;;;;;;10127018;28;20559;-74
2024/03/11 15:35:32;;;;;;;10.43;7.45;;;;;;;;;;10125641;28;20125;-73
2024/03/11 15:40:25;;;;;;;15.15;7.18;;;;;;;;;;10129834;28;20484;-73
2024/03/11 15:45:19;;;;;;;11.70;7.90;;;;;;;;;;10127155;28;20479;-73
2024/03/11 15:50:21;;;;;;;9.85;7.32;;;;;;;;;;10126784;28;20049;-74
2024/03/11 15:55:19;;;;;;;8.70;6.90;;;;;;;;;;10128763;28;20063;-73
2024/03/11 16:00:18;;;;;;;11.77;7.88;;;;;;;;;;10128171;28;20064;-74
2024/03/11 16:05:15;;;;;;;11.63;7.55;;;;;;;;;;10128502;28;20049;-73
2024/03/11 16:10:14;;;;;;;10.43;7.80;;;;;;;;;;10127109;28;20140;-73
2024/03/11 16:15:10;;;;;;;9.15;7.78;;;;;;;;;;10129988;28;20054;-73
2024/03/11 16:20:07;;;;;;;10.32;8.43;;;;;;;;;;10130241;28;20488;-73
2024/03/11 16:25:01;;;;;;;9.63;8.32;;;;;;;;;;10131008;28;20098;-73
2024/03/11 16:29:55;;;;;;;10.93;7.63;;;;;;;;;;10128326;28;20048;-73
2024/03/11 16:34:51;;;;;;;11.15;8.38;;;;;;;;;;10133303;28;20055;-73
2024/03/11 16:39:45;;;;;;;20.85;15.27;;;;;;;;;;10125645;28;20411;-73
2024/03/11 16:44:39;;;;;;;12.65;10.40;;;;;;;;;;10126559;28;20052;-73
2024/03/11 16:49:39;;;;;;;12.80;9.00;;;;;;;;;;10131994;28;20136;-73
2024/03/11 16:54:33;;;;;;;9.45;7.97;;;;;;;;;;10129324;28;20569;-73
2024/03/11 16:59:27;;;;;;;9.10;7.55;;;;;;;;;;10122923;28;20035;-73
2024/03/11 17:04:40;;;;;;;13.02;9.10;;;;;;;;;;10133908;28;20139;-73
2024/03/11 17:09:51;;;;;;;10.45;8.20;;;;;;;;;;10126358;28;20152;-72
2024/03/11 17:14:48;;;;;;;11.13;7.78;;;;;;;;;;10125010;28;20045;-73
2024/03/11 17:19:42;;;;;;;13.70;8.32;;;;;;;;;;10129395;28;20052;-73
2024/03/11 17:24:41;;;;;;;9.65;7.40;;;;;;;;;;10132237;28;20070;-72
2024/03/11 17:29:35;;;;;;;9.85;8.18;;;;;;;;;;10133007;28;20059;-72
2024/03/11 17:34:30;;;;;;;16.27;10.88;;;;;;;;;;10126765;28;20045;-72
2024/03/11 17:39:26;;;;;;;16.15;9.77;;;;;;;;;;10126805;28;20049;-73
2024/03/11 17:44:20;;;;;;;10.07;7.65;;;;;;;;;;10124080;28;21240;-73
2024/03/11 17:49:12;;;;;;;14.45;8.98;;;;;;;;;;10127808;28;20052;-72
2024/03/11 17:54:07;;;;;;;15.52;9.23;;;;;;;;;;10131628;28;20057;-73
2024/03/11 17:59:01;;;;;;;9.43;7.22;;;;;;;;;;10129291;28;20049;-73
2024/03/11 18:03:56;;;;;;;9.93;8.25;;;;;;;;;;10123119;28;20447;-73
2024/03/11 18:08:50;;;;;;;8.93;7.35;;;;;;;;;;10122362;28;20067;-73
2024/03/11 18:13:46;;;;;;;12.02;8.52;;;;;;;;;;10125231;28;20056;-73
2024/03/11 18:18:39;;;;;;;15.23;9.10;;;;;;;;;;10125624;28;20427;-72
2024/03/11 18:23:33;;;;;;;14.85;10.43;;;;;;;;;;10122036;28;20122;-73
2024/03/11 18:28:31;;;;;;;11.82;7.90;;;;;;;;;;10129555;28;20075;-73
2024/03/11 18:33:28;;;;;;;12.57;7.30;;;;;;;;;;10129239;28;20138;-73
2024/03/11 18:38:22;;;;;;;8.30;6.95;;;;;;;;;;10129632;28;20117;-73
2024/03/11 18:43:16;;;;;;;9.52;7.68;;;;;;;;;;10127393;28;20128;-73
2024/03/11 18:48:11;;;;;;;12.75;6.80;;;;;;;;;;10124191;28;20060;-73
2024/03/11 18:53:06;;;;;;;11.05;7.55;;;;;;;;;;10126925;28;20562;-73
2024/03/11 18:58:01;;;;;;;16.70;10.48;;;;;;;;;;10132095;28;20501;-73
2024/03/11 19:02:59;;;;;;;26.35;16.05;;;;;;;;;;10127446;28;20060;-73
2024/03/11 19:07:54;;;;;;;26.40;20.23;;;;;;;;;;10135723;28;20519;-73
2024/03/11 19:12:51;;;;;;;11.20;8.02;;;;;;;;;;10137171;28;20051;-73
2024/03/11 19:17:46;;;;;;;15.98;10.80;;;;;;;;;;10134131;28;20815;-73
2024/03/11 19:22:43;;;;;;;18.50;12.40;;;;;;;;;;10130033;28;20049;-73
2024/03/11 19:27:39;;;;;;;13.60;10.98;;;;;;;;;;10131034;28;20522;-73
2024/03/11 19:32:33;;;;;;;9.60;8.27;;;;;;;;;;10130355;28;20505;-72
2024/03/11 19:37:47;;;;;;;10.88;8.80;;;;;;;;;;10130456;28;20068;-73
2024/03/11 19:43:15;;;;;;;15.30;8.23;;;;;;;;;;10136517;28;20052;-74
2024/03/11 19:48:26;;;;;;;12.40;8.70;;;;;;;;;;10133950;28;20075;-73
2024/03/11 19:53:35;;;;;;;9.60;7.60;;;;;;;;;;10133757;28;20076;-73
2024/03/11 19:59:22;;;;;;;15.50;8.63;;;;;;;;;;10134078;28;20048;-73
2024/03/11 20:04:54;;;;;;;8.25;7.38;;;;;;;;;;10135093;28;20416;-73
2024/03/11 20:10:06;;;;;;;9.07;6.40;;;;;;;;;;10131276;28;20053;-72
2024/03/11 20:15:34;;;;;;;7.03;4.93;;;;;;;;;;10128288;28;20135;-73
2024/03/11 20:21:18;;;;;;;29.55;8.73;;;;;;;;;;10132686;28;20131;-73
2024/03/11 20:26:35;;;;;;;6.40;4.65;;;;;;;;;;10123673;28;20459;-74
2024/03/11 20:31:33;;;;;;;9.77;7.38;;;;;;;;;;10133383;28;20059;-73
2024/03/11 20:36:28;;;;;;;15.77;12.73;;;;;;;;;;10133939;28;20060;-74
2024/03/11 20:41:22;;;;;;;13.13;8.55;;;;;;;;;;10133054;28;20052;-73
2024/03/11 20:46:15;;;;;;;14.27;10.90;;;;;;;;;;10131213;28;20044;-73
2024/03/11 20:51:10;;;;;;;14.13;10.70;;;;;;;;;;10129372;28;20492;-73
2024/03/11 20:56:06;;;;;;;14.25;11.75;;;;;;;;;;10126254;28;20048;-73
2024/03/11 21:01:00;;;;;;;12.68;10.38;;;;;;;;;;10131630;28;20052;-73
2024/03/11 21:05:56;;;;;;;16.27;12.70;;;;;;;;;;10131832;28;20041;-76
2024/03/11 21:10:49;;;;;;;12.93;8.90;;;;;;;;;;10132397;28;20412;-77
2024/03/11 21:15:43;;;;;;;11.93;6.97;;;;;;;;;;10132898;28;20050;-75
2024/03/11 21:30:46;;;;;;;6.82;5.20;;;;;;;;;;10122651;28;20090;-76
2024/03/11 21:35:39;;;;;;;7.50;6.15;;;;;;;;;;10128269;28;20501;-76
2024/03/11 21:40:34;;;;;;;4.95;4.20;;;;;;;;;;10127356;28;20055;-77
2024/03/11 21:45:28;;;;;;;5.60;4.65;;;;;;;;;;10124583;28;20048;-75
2024/03/11 21:50:22;;;;;;;4.72;3.85;;;;;;;;;;10126488;28;20056;-76
2024/03/11 21:55:17;;;;;;;4.13;3.72;;;;;;;;;;10134992;28;20059;-75
2024/03/11 22:00:16;;;;;;;3.92;3.45;;;;;;;;;;10133478;28;20099;-75
2024/03/11 22:05:26;;;;;;;2.45;2.22;;;;;;;;;;10130304;28;20049;-74
2024/03/11 22:10:22;;;;;;;2.20;2.00;;;;;;;;;;10128873;28;20040;-77
2024/03/11 22:15:17;;;;;;;2.53;1.77;;;;;;;;;;10125704;28;20083;-75
2024/03/11 22:20:12;;;;;;;1.95;1.70;;;;;;;;;;10129028;28;20103;-77
2024/03/11 22:25:07;;;;;;;1.90;1.60;;;;;;;;;;10128282;28;20392;-76
2024/03/11 22:30:02;;;;;;;1.85;1.70;;;;;;;;;;10125385;28;20139;-78
2024/03/11 22:34:59;;;;;;;1.73;1.40;;;;;;;;;;10127359;28;20043;-76
2024/03/11 22:39:53;;;;;;;1.70;1.60;;;;;;;;;;10128896;28;20057;-75
2024/03/11 22:44:48;;;;;;;1.70;1.38;;;;;;;;;;10126256;28;20113;-75
2024/03/11 22:49:42;;;;;;;5.20;3.47;;;;;;;;;;10124683;28;20097;-77
2024/03/11 22:54:38;;;;;;;2.67;1.67;;;;;;;;;;10128521;28;20040;-76
2024/03/11 22:59:32;;;;;;;1.77;1.40;;;;;;;;;;10126523;28;20071;-76
2024/03/11 23:04:26;;;;;;;2.30;1.88;;;;;;;;;;10127575;28;20052;-77
2024/03/11 23:09:20;;;;;;;3.20;1.50;;;;;;;;;;10128040;28;20045;-76
2024/03/11 23:14:14;;;;;;;1.45;1.35;;;;;;;;;;10126082;28;20051;-76
2024/03/11 23:19:08;;;;;;;1.80;1.55;;;;;;;;;;10120999;28;20060;-77
2024/03/11 23:24:02;;;;;;;1.65;1.55;;;;;;;;;;10095428;28;299507;-76
2024/03/11 23:28:56;;;;;;;1.48;1.38;;;;;;;;;;10121650;28;20088;-75
2024/03/11 23:33:50;;;;;;;3.50;1.65;;;;;;;;;;10131725;28;20554;-76
2024/03/11 23:38:44;;;;;;;1.85;1.65;;;;;;;;;;10129024;28;20057;-75
2024/03/11 23:43:40;;;;;;;1.40;1.30;;;;;;;;;;10128546;28;20072;-76
2024/03/11 23:48:34;;;;;;;1.58;1.48;;;;;;;;;;10132548;28;20068;-75
2024/03/11 23:53:28;;;;;;;1.77;1.50;;;;;;;;;;10128171;28;20045;-76
2024/03/11 23:58:24;;;;;;;2.22;2.03;;;;;;;;;;10130784;28;20131;-77
